Time;durP1;ratioP1;P1;durP2;ratioP2;P2;SDS_P1;SDS_P2;PMS_P1;PMS_P2;Temp;Humidity;BMP_temperature;BMP_pressure;BME280_temperature;BME280_humidity;BME280_pressure;Samples;Min_cycle;Max_cycle;Signal;HPM_P1;HPM_P2
2022/05/29 00:00:13;;;;;;;3.15;2.00;;;14.80;91.00;;;;;;5015440;28;20026;-84
2022/05/29 00:02:40;;;;;;;2.72;2.03;;;14.80;90.80;;;;;;5016434;28;20107;-84
2022/05/29 00:05:08;;;;;;;3.85;2.10;;;14.80;90.70;;;;;;5015240;28;20061;-84
2022/05/29 00:07:34;;;;;;;4.45;1.85;;;14.80;90.90;;;;;;5015589;28;20480;-84
2022/05/29 00:10:04;;;;;;;4.82;2.42;;;14.80;90.90;;;;;;5014978;28;20442;-84
2022/05/29 00:12:30;;;;;;;2.30;2.03;;;14.80;91.00;;;;;;5014982;28;20638;-84
2022/05/29 00:14:56;;;;;;;4.30;2.20;;;14.80;91.50;;;;;;5015192;28;20391;-85
2022/05/29 00:17:22;;;;;;;3.30;2.05;;;14.80;91.80;;;;;;5015109;28;20033;-85
2022/05/29 00:19:48;;;;;;;2.80;2.15;;;14.80;91.50;;;;;;5016493;28;20025;-84
2022/05/29 00:22:18;;;;;;;2.50;2.30;;;14.80;91.60;;;;;;5014978;28;20057;-84
2022/05/29 00:24:49;;;;;;;3.55;2.38;;;14.80;91.70;;;;;;5015998;28;20388;-84
2022/05/29 00:27:18;;;;;;;3.92;2.50;;;14.70;91.80;;;;;;5014541;28;20026;-85
2022/05/29 00:29:44;;;;;;;6.77;2.83;;;14.70;92.00;;;;;;5014747;28;20033;-85
2022/05/29 00:32:10;;;;;;;3.40;2.40;;;14.70;92.00;;;;;;5014615;28;20022;-85
2022/05/29 00:34:36;;;;;;;6.13;2.58;;;14.70;92.20;;;;;;5014679;28;20030;-84
2022/05/29 00:37:07;;;;;;;6.82;2.83;;;14.60;92.40;;;;;;5014777;28;20034;-84
2022/05/29 00:39:34;;;;;;;5.25;2.53;;;14.60;92.40;;;;;;5014527;28;20030;-84
2022/05/29 00:42:04;;;;;;;4.25;2.60;;;14.60;92.60;;;;;;5015701;28;20465;-84
2022/05/29 00:44:31;;;;;;;3.50;2.78;;;14.60;92.70;;;;;;5014429;28;20491;-84
2022/05/29 00:47:06;;;;;;;5.55;3.03;;;14.50;92.80;;;;;;5014375;28;20056;-85
2022/05/29 00:49:34;;;;;;;5.88;3.20;;;14.60;93.00;;;;;;5014533;28;20061;-85
2022/05/29 00:52:05;;;;;;;5.00;3.03;;;14.50;93.10;;;;;;5014172;28;20116;-84
2022/05/29 00:54:44;;;;;;;2.42;2.20;;;14.60;93.20;;;;;;5014347;28;20473;-84
2022/05/29 00:57:17;;;;;;;2.90;2.17;;;14.50;93.40;;;;;;5014402;28;20040;-84
2022/05/29 00:59:43;;;;;;;4.03;2.30;;;14.50;93.50;;;;;;5014284;28;20033;-85
2022/05/29 01:02:09;;;;;;;3.17;2.75;;;14.50;93.60;;;;;;5015216;28;20033;-85
2022/05/29 01:04:37;;;;;;;3.90;2.20;;;14.50;94.00;;;;;;5014363;28;20024;-84
2022/05/29 01:07:08;;;;;;;2.83;2.20;;;14.40;93.80;;;;;;5014034;28;20469;-84
2022/05/29 01:09:35;;;;;;;2.80;2.50;;;14.40;93.80;;;;;;5014092;28;20029;-85
2022/05/29 01:12:06;;;;;;;2.92;2.30;;;14.50;94.00;;;;;;5013997;28;20033;-84
2022/05/29 01:15:00;;;;;;;3.80;2.55;;;14.40;94.10;;;;;;5013929;28;20026;-85
2022/05/29 01:17:49;;;;;;;3.78;2.30;;;14.40;94.30;;;;;;4996863;28;20042;-85
2022/05/29 01:20:29;;;;;;;5.35;2.75;;;14.40;94.30;;;;;;5007828;28;20030;-85
2022/05/29 01:23:18;;;;;;;4.78;2.88;;;14.40;94.40;;;;;;5012709;28;20137;-85
2022/05/29 01:26:04;;;;;;;3.60;2.85;;;14.40;94.60;;;;;;5008357;28;20072;-85
2022/05/29 01:28:53;;;;;;;8.93;3.20;;;14.40;94.70;;;;;;5013822;28;20026;-84
2022/05/29 01:31:31;;;;;;;5.93;3.30;;;14.40;94.70;;;;;;5013861;28;20526;-84
2022/05/29 01:34:11;;;;;;;5.25;3.60;;;14.30;94.60;;;;;;5013694;28;20038;-84
2022/05/29 01:37:07;;;;;;;5.88;3.38;;;14.30;94.90;;;;;;5013619;28;20032;-84
2022/05/29 01:39:55;;;;;;;4.55;2.67;;;14.30;95.10;;;;;;5014773;28;20036;-85
2022/05/29 01:43:11;;;;;;;3.90;2.58;;;14.30;95.20;;;;;;5013996;28;20491;-85
2022/05/29 01:45:55;;;;;;;3.50;2.42;;;14.30;95.30;;;;;;5004590;28;20034;-84
2022/05/29 01:48:50;;;;;;;4.53;3.20;;;14.20;95.20;;;;;;5013575;28;20026;-84
2022/05/29 01:51:22;;;;;;;6.18;3.10;;;14.30;95.30;;;;;;5013403;28;20076;-85
2022/05/29 01:53:57;;;;;;;3.58;2.78;;;14.30;95.40;;;;;;5013250;28;20030;-84
2022/05/29 01:56:31;;;;;;;3.70;2.70;;;14.30;95.40;;;;;;5013207;28;20048;-85
2022/05/29 01:59:08;;;;;;;4.05;2.90;;;14.30;95.50;;;;;;5013323;28;20038;-85
2022/05/29 02:01:38;;;;;;;4.05;3.10;;;14.30;95.70;;;;;;5013383;28;20025;-84
2022/05/29 02:04:13;;;;;;;6.82;3.95;;;14.20;95.80;;;;;;5013445;28;20092;-84
2022/05/29 02:09:35;;;;;;;7.38;4.47;;;14.20;95.60;;;;;;5014575;28;20036;-84
2022/05/29 02:12:03;;;;;;;10.52;4.55;;;14.20;95.40;;;;;;5013139;28;20021;-85
2022/05/29 02:14:38;;;;;;;7.10;4.20;;;14.20;95.40;;;;;;5013433;28;20369;-84
2022/05/29 02:17:11;;;;;;;6.50;3.65;;;14.20;95.30;;;;;;5013018;28;20113;-85
2022/05/29 02:19:56;;;;;;;6.50;3.80;;;14.20;95.20;;;;;;5013195;28;20038;-85
2022/05/29 02:22:27;;;;;;;6.93;3.50;;;14.30;95.00;;;;;;5012774;28;20069;-84
2022/05/29 02:24:58;;;;;;;4.35;3.70;;;14.30;94.70;;;;;;5013125;28;20113;-84
2022/05/29 02:27:26;;;;;;;3.55;3.22;;;14.20;94.20;;;;;;5012819;28;20022;-85
2022/05/29 02:29:57;;;;;;;6.68;3.92;;;14.30;94.30;;;;;;5012922;28;20385;-85
2022/05/29 02:32:28;;;;;;;4.95;3.60;;;14.20;94.40;;;;;;5013088;28;20041;-85
2022/05/29 02:35:15;;;;;;;8.23;3.35;;;14.20;94.60;;;;;;5012769;28;20388;-85
2022/05/29 02:38:14;;;;;;;4.35;3.40;;;14.20;94.50;;;;;;5012900;28;20507;-84
2022/05/29 02:41:06;;;;;;;4.93;3.15;;;14.20;94.30;;;;;;5012914;28;20026;-85
2022/05/29 02:43:32;;;;;;;7.10;3.67;;;14.20;94.30;;;;;;5012646;28;20036;-85
2022/05/29 02:46:04;;;;;;;10.02;3.60;;;14.20;94.50;;;;;;5012659;28;20109;-85
2022/05/29 02:48:45;;;;;;;5.85;3.60;;;14.10;94.50;;;;;;5012571;28;20022;-85
2022/05/29 02:51:22;;;;;;;6.65;3.58;;;14.20;94.40;;;;;;5012994;28;20026;-85
2022/05/29 02:53:48;;;;;;;6.65;3.63;;;14.20;94.30;;;;;;5012869;28;20036;-85
2022/05/29 02:56:15;;;;;;;8.43;4.15;;;14.20;94.10;;;;;;5012846;28;20160;-84
2022/05/29 02:58:43;;;;;;;5.95;4.00;;;14.20;94.10;;;;;;5012568;28;20032;-85
2022/05/29 03:01:59;;;;;;;8.10;4.03;;;14.20;94.10;;;;;;5012580;28;20036;-85
2022/05/29 03:05:00;;;;;;;5.82;3.88;;;14.20;93.90;;;;;;4995797;28;20496;-85
2022/05/29 03:07:50;;;;;;;5.72;4.07;;;14.20;93.90;;;;;;5012954;28;20038;-85
2022/05/29 03:10:41;;;;;;;4.32;3.70;;;14.30;93.40;;;;;;5012481;28;20481;-85
2022/05/29 03:13:26;;;;;;;5.35;3.65;;;14.40;93.40;;;;;;5006858;28;20030;-84
2022/05/29 03:16:16;;;;;;;6.50;3.53;;;14.40;93.10;;;;;;5012364;28;20033;-85
2022/05/29 03:19:00;;;;;;;6.25;3.75;;;14.50;93.20;;;;;;5012517;28;20368;-84
2022/05/29 03:21:36;;;;;;;5.68;3.35;;;14.60;93.10;;;;;;5013350;28;20484;-85
2022/05/29 03:24:24;;;;;;;7.90;3.33;;;14.60;93.20;;;;;;5012205;28;20084;-84
2022/05/29 03:27:08;;;;;;;5.82;3.20;;;14.70;93.00;;;;;;5012226;28;20022;-84
2022/05/29 03:29:48;;;;;;;4.93;3.30;;;14.80;92.90;;;;;;5012401;28;20030;-85
2022/05/29 03:32:15;;;;;;;;;;;14.90;92.90;;;;;;5012886;28;20523;-85
2022/05/29 03:34:41;;;;;;;4.57;2.95;;;14.90;92.80;;;;;;5012181;28;19909;-85
2022/05/29 03:37:07;;;;;;;4.22;3.35;;;15.00;92.80;;;;;;5013551;28;20040;-84
2022/05/29 03:39:33;;;;;;;7.28;3.63;;;15.00;92.30;;;;;;5012222;28;20026;-85
2022/05/29 03:41:59;;;;;;;7.35;3.20;;;15.10;92.00;;;;;;5012439;28;20428;-85
2022/05/29 03:44:25;;;;;;;6.35;3.45;;;15.10;91.80;;;;;;5012366;28;20116;-85
2022/05/29 03:46:51;;;;;;;5.88;3.40;;;15.10;91.50;;;;;;5014223;28;20108;-85
2022/05/29 03:49:20;;;;;;;3.45;2.80;;;15.20;91.40;;;;;;5015713;28;20054;-85
2022/05/29 03:51:46;;;;;;;5.97;2.78;;;15.20;91.10;;;;;;5015421;28;20044;-84
2022/05/29 03:54:13;;;;;;;3.72;2.70;;;15.30;90.80;;;;;;5015385;28;20022;-84
2022/05/29 03:56:39;;;;;;;3.00;2.30;;;15.30;90.70;;;;;;5015514;28;20061;-85
2022/05/29 03:59:05;;;;;;;6.68;2.50;;;15.40;90.40;;;;;;5015765;28;20053;-84
2022/05/29 04:01:32;;;;;;;4.60;2.25;;;15.50;90.30;;;;;;5015302;28;20026;-84
2022/05/29 04:03:58;;;;;;;3.20;2.08;;;15.70;90.30;;;;;;5015206;28;20137;-85
2022/05/29 04:06:26;;;;;;;2.75;1.90;;;15.80;90.10;;;;;;5015195;28;20022;-84
2022/05/29 04:14:25;;;;;;;2.05;1.85;;;16.00;87.70;;;;;;5016520;28;20037;-84
2022/05/29 04:16:52;;;;;;;3.53;2.13;;;16.00;87.40;;;;;;5014913;28;20029;-84
2022/05/29 04:19:19;;;;;;;3.35;2.10;;;16.00;87.20;;;;;;5014771;28;20033;-84
2022/05/29 04:21:45;;;;;;;2.83;2.20;;;15.90;87.80;;;;;;5014620;28;20488;-84
2022/05/29 04:24:10;;;;;;;3.55;2.47;;;15.70;88.40;;;;;;5014853;28;20037;-84
2022/05/29 04:26:37;;;;;;;4.75;2.13;;;15.70;88.20;;;;;;5014686;28;20029;-84
2022/05/29 04:29:04;;;;;;;3.15;2.03;;;15.80;88.30;;;;;;5014726;28;20026;-84
2022/05/29 04:31:32;;;;;;;2.70;2.22;;;15.80;89.00;;;;;;5014780;28;20030;-84
2022/05/29 04:33:58;;;;;;;3.63;2.10;;;15.80;88.70;;;;;;5014618;28;20117;-84
2022/05/29 04:36:24;;;;;;;4.07;2.40;;;15.90;88.40;;;;;;5014862;28;20429;-85
2022/05/29 04:38:51;;;;;;;2.90;1.92;;;15.90;88.30;;;;;;5014670;28;20026;-84
2022/05/29 04:41:19;;;;;;;7.13;2.40;;;15.90;88.20;;;;;;5014384;28;20065;-84
2022/05/29 04:43:45;;;;;;;2.97;2.53;;;15.80;89.30;;;;;;5014444;28;20036;-84
2022/05/29 04:46:11;;;;;;;5.85;2.22;;;15.80;89.10;;;;;;5014494;28;20049;-84
2022/05/29 04:48:37;;;;;;;6.43;2.65;;;15.80;90.00;;;;;;5014356;28;20022;-84
2022/05/29 04:51:05;;;;;;;6.85;2.47;;;15.90;89.50;;;;;;5014854;28;20029;-85
2022/05/29 04:53:31;;;;;;;3.70;2.00;;;15.90;88.90;;;;;;5014234;28;20026;-85
2022/05/29 04:55:58;;;;;;;4.95;2.20;;;16.00;88.50;;;;;;5014236;28;20026;-84
2022/05/29 04:58:26;;;;;;;5.45;2.13;;;16.00;89.60;;;;;;5014193;28;20030;-84
2022/05/29 05:01:03;;;;;;;3.75;1.92;;;16.10;89.30;;;;;;5014062;28;20476;-84
2022/05/29 05:03:30;;;;;;;1.77;1.40;;;16.30;88.00;;;;;;5015328;28;20116;-84
2022/05/29 05:05:56;;;;;;;2.95;1.48;;;16.30;85.50;;;;;;5014170;28;20500;-84
2022/05/29 05:08:22;;;;;;;4.28;1.90;;;16.40;84.10;;;;;;5014039;28;20022;-84
2022/05/29 05:10:48;;;;;;;3.28;1.85;;;16.30;84.10;;;;;;5014034;28;20018;-84
2022/05/29 05:13:14;;;;;;;8.27;2.08;;;16.30;85.50;;;;;;5014043;28;20115;-84
2022/05/29 05:15:40;;;;;;;6.90;1.83;;;16.10;86.00;;;;;;5013867;28;20032;-84
2022/05/29 05:18:06;;;;;;;2.20;1.50;;;16.20;86.00;;;;;;5013983;28;20033;-84
2022/05/29 05:20:33;;;;;;;3.47;2.70;;;16.40;83.70;;;;;;5013894;28;20029;-84
2022/05/29 05:22:59;;;;;;;2.92;1.42;;;16.40;83.40;;;;;;5013604;28;20053;-84
2022/05/29 05:25:25;;;;;;;2.95;1.60;;;16.50;82.30;;;;;;5013785;28;20025;-84
2022/05/29 05:27:51;;;;;;;3.05;1.73;;;16.50;83.00;;;;;;5013785;28;20060;-84
2022/05/29 05:30:17;;;;;;;3.75;1.35;;;16.60;82.10;;;;;;5013714;28;20046;-85
2022/05/29 05:32:42;;;;;;;2.30;1.85;;;16.60;81.70;;;;;;5013550;28;20034;-84
2022/05/29 05:35:09;;;;;;;6.97;2.00;;;16.50;79.00;;;;;;5014835;28;20104;-85
2022/05/29 05:37:36;;;;;;;4.90;1.65;;;16.50;76.90;;;;;;5013606;28;20036;-84
2022/05/29 05:40:04;;;;;;;6.65;1.90;;;16.60;76.30;;;;;;5013575;28;20026;-84
2022/05/29 05:42:30;;;;;;;3.90;1.85;;;16.60;76.40;;;;;;5014606;28;20029;-84
2022/05/29 05:44:56;;;;;;;8.43;2.08;;;16.70;76.80;;;;;;5013421;28;20033;-84
2022/05/29 05:47:22;;;;;;;5.13;1.80;;;16.70;74.00;;;;;;5014755;28;20109;-84
2022/05/29 05:49:49;;;;;;;20.67;3.55;;;16.50;72.00;;;;;;5013283;28;20029;-84
2022/05/29 05:52:15;;;;;;;6.00;1.65;;;16.60;72.90;;;;;;5013235;28;20117;-84
2022/05/29 05:54:41;;;;;;;5.65;2.03;;;16.70;74.10;;;;;;5013287;28;20037;-84
2022/05/29 05:57:07;;;;;;;5.45;1.77;;;16.90;72.70;;;;;;5013161;28;20030;-84
2022/05/29 05:59:35;;;;;;;2.20;1.45;;;17.00;71.70;;;;;;5013158;28;20164;-84
2022/05/29 06:02:00;;;;;;;4.28;1.75;;;17.00;72.30;;;;;;5013399;28;20033;-84
2022/05/29 06:04:26;;;;;;;3.28;1.58;;;17.00;72.80;;;;;;5012972;28;20029;-84
2022/05/29 06:06:53;;;;;;;2.22;1.40;;;17.20;71.30;;;;;;5012921;28;20084;-84
2022/05/29 06:09:21;;;;;;;5.22;1.95;;;17.30;71.70;;;;;;5012403;28;20028;-83
2022/05/29 06:11:47;;;;;;;3.63;1.80;;;17.60;72.00;;;;;;5012805;28;20112;-83
2022/05/29 06:14:13;;;;;;;2.28;1.27;;;17.70;71.30;;;;;;5012927;28;20450;-84
2022/05/29 06:16:39;;;;;;;5.40;2.13;;;17.90;69.90;;;;;;5012934;28;20025;-84
2022/05/29 06:19:06;;;;;;;4.43;1.60;;;18.10;69.60;;;;;;5012891;28;20538;-84
2022/05/29 06:21:35;;;;;;;4.75;1.25;;;18.30;69.90;;;;;;5013814;28;20052;-84
2022/05/29 06:24:01;;;;;;;5.20;1.90;;;18.50;69.60;;;;;;5013086;28;20060;-84
2022/05/29 06:26:27;;;;;;;8.05;2.00;;;18.60;68.60;;;;;;5012835;28;20022;-84
2022/05/29 06:28:53;;;;;;;3.92;1.52;;;18.70;68.10;;;;;;5013018;28;20526;-84
2022/05/29 06:31:19;;;;;;;3.78;1.77;;;18.90;68.50;;;;;;5012586;28;20476;-84
2022/05/29 06:33:44;;;;;;;2.83;1.58;;;19.00;68.70;;;;;;5012552;28;20057;-84
2022/05/29 06:36:14;;;;;;;5.45;1.70;;;19.20;68.50;;;;;;5012669;28;20388;-85
2022/05/29 06:38:42;;;;;;;4.85;1.75;;;19.30;66.20;;;;;;5012886;28;20062;-84
2022/05/29 06:41:09;;;;;;;3.90;1.67;;;19.10;66.00;;;;;;5012683;28;20033;-84
2022/05/29 06:43:35;;;;;;;3.83;1.95;;;19.10;66.50;;;;;;5012498;28;20439;-84
2022/05/29 06:46:03;;;;;;;5.53;1.85;;;19.10;67.20;;;;;;5012483;28;20029;-84
2022/05/29 06:48:29;;;;;;;1.83;1.60;;;19.20;67.40;;;;;;5012528;28;20464;-84
2022/05/29 06:50:55;;;;;;;7.93;2.13;;;19.20;67.20;;;;;;5012623;28;20056;-84
2022/05/29 06:53:21;;;;;;;3.55;1.85;;;19.10;65.50;;;;;;5012918;28;20438;-84
2022/05/29 06:55:54;;;;;;;6.07;2.17;;;19.20;65.80;;;;;;5012295;28;20384;-84
2022/05/29 06:58:21;;;;;;;2.72;1.50;;;19.20;66.10;;;;;;5012617;28;20097;-84
2022/05/29 07:08:59;;;;;;;5.07;1.80;;;19.20;65.50;;;;;;5013699;28;20109;-84
2022/05/29 07:11:28;;;;;;;1.65;1.55;;;19.20;66.10;;;;;;5012320;28;20439;-84
2022/05/29 07:13:54;;;;;;;3.83;1.50;;;19.30;64.90;;;;;;5012327;28;20030;-84
2022/05/29 07:16:20;;;;;;;3.10;1.65;;;19.30;65.10;;;;;;5012347;28;20030;-84
2022/05/29 07:18:50;;;;;;;3.50;1.50;;;19.30;65.00;;;;;;5012224;28;20404;-84
2022/05/29 07:21:16;;;;;;;3.28;1.60;;;19.30;63.50;;;;;;5013316;28;20060;-84
2022/05/29 07:23:42;;;;;;;2.13;1.40;;;19.30;63.50;;;;;;5015749;28;20071;-84
2022/05/29 07:26:08;;;;;;;4.05;1.70;;;19.50;63.70;;;;;;5015812;28;20026;-84
2022/05/29 07:28:34;;;;;;;4.35;1.80;;;19.70;63.00;;;;;;5015937;28;20064;-84
2022/05/29 07:31:00;;;;;;;3.70;1.77;;;19.90;62.70;;;;;;5015654;28;20073;-84
2022/05/29 07:33:26;;;;;;;2.42;1.60;;;20.00;61.70;;;;;;5015789;28;20033;-84
2022/05/29 07:35:52;;;;;;;3.83;1.40;;;20.30;61.60;;;;;;5015650;28;20033;-84
2022/05/29 07:38:18;;;;;;;13.15;2.88;;;20.50;61.20;;;;;;5015568;28;20041;-84
2022/05/29 07:40:44;;;;;;;2.72;1.65;;;20.60;59.30;;;;;;5015738;28;20037;-84
2022/05/29 07:43:18;;;;;;;5.18;1.50;;;20.60;59.30;;;;;;5015663;28;20056;-84
2022/05/29 07:45:48;;;;;;;3.85;1.33;;;20.50;58.00;;;;;;5015637;28;20112;-84
2022/05/29 07:48:15;;;;;;;3.35;1.35;;;20.20;57.20;;;;;;5015699;28;20117;-83
2022/05/29 07:50:41;;;;;;;3.33;1.65;;;20.20;59.10;;;;;;5016884;28;20037;-85
2022/05/29 07:53:08;;;;;;;1.70;1.20;;;20.20;60.10;;;;;;5015282;28;20025;-84
2022/05/29 07:55:35;;;;;;;3.92;2.08;;;20.30;60.20;;;;;;5015401;28;20076;-84
2022/05/29 07:58:00;;;;;;;3.47;1.33;;;20.20;60.50;;;;;;5015430;28;20113;-84
2022/05/29 08:00:26;;;;;;;1.92;1.20;;;19.90;60.00;;;;;;5015640;28;20112;-84
2022/05/29 08:02:52;;;;;;;4.05;1.60;;;19.50;59.70;;;;;;5015144;28;20021;-84
2022/05/29 08:05:20;;;;;;;3.90;1.40;;;19.30;59.80;;;;;;5015048;28;20027;-84
2022/05/29 08:07:47;;;;;;;3.92;1.90;;;19.20;60.50;;;;;;5016467;28;20022;-84
2022/05/29 08:10:14;;;;;;;2.60;1.65;;;19.10;61.00;;;;;;5015163;28;20022;-84
2022/05/29 08:12:41;;;;;;;3.25;1.40;;;19.00;61.00;;;;;;5014958;28;20037;-85
2022/05/29 08:15:09;;;;;;;6.57;1.83;;;18.90;61.20;;;;;;5014963;28;20025;-84
2022/05/29 08:17:35;;;;;;;3.45;1.80;;;18.90;61.50;;;;;;5015280;28;20431;-84
2022/05/29 08:20:01;;;;;;;3.05;1.60;;;18.80;60.90;;;;;;5014984;28;20030;-85
2022/05/29 08:22:26;;;;;;;3.30;1.75;;;18.80;60.90;;;;;;5014571;28;20056;-84
2022/05/29 08:30:51;;;;;;;7.75;1.70;;;18.70;61.80;;;;;;5016700;28;20099;-84
2022/05/29 08:33:21;;;;;;;1.95;1.45;;;18.70;60.90;;;;;;5014106;28;20069;-84
2022/05/29 08:36:02;;;;;;;2.70;1.42;;;18.80;62.30;;;;;;5014833;28;20025;-84
2022/05/29 08:38:29;;;;;;;3.42;1.67;;;19.00;63.20;;;;;;5014757;28;20076;-84
2022/05/29 08:41:03;;;;;;;3.10;1.60;;;19.10;63.20;;;;;;5014510;28;20354;-84
2022/05/29 08:43:48;;;;;;;2.50;1.40;;;19.30;62.10;;;;;;5014363;28;20369;-84
2022/05/29 08:46:20;;;;;;;3.60;1.92;;;19.30;62.40;;;;;;5014917;28;20353;-84
2022/05/29 08:48:51;;;;;;;3.25;1.80;;;19.20;62.00;;;;;;5015474;28;20104;-84
2022/05/29 08:51:43;;;;;;;4.43;2.28;;;19.30;62.10;;;;;;5015132;28;20347;-83
2022/05/29 08:54:23;;;;;;;4.07;1.80;;;19.40;62.10;;;;;;5014188;28;20022;-83
2022/05/29 08:56:55;;;;;;;3.95;1.80;;;19.40;62.10;;;;;;5014350;28;20025;-83
2022/05/29 08:59:48;;;;;;;2.33;1.60;;;19.50;61.70;;;;;;5014059;28;20469;-83
2022/05/29 09:02:24;;;;;;;3.40;1.40;;;19.70;61.90;;;;;;5013941;28;20432;-83
2022/05/29 09:04:58;;;;;;;2.08;1.60;;;19.60;61.10;;;;;;5014142;28;20108;-83
2022/05/29 09:07:26;;;;;;;2.65;1.63;;;19.60;61.00;;;;;;5014126;28;20022;-84
2022/05/29 09:09:56;;;;;;;1.98;1.58;;;19.60;62.10;;;;;;5015052;28;20026;-84
2022/05/29 09:12:33;;;;;;;3.83;1.90;;;19.60;61.50;;;;;;5014023;28;20156;-84
2022/05/29 09:15:06;;;;;;;14.10;3.25;;;19.50;61.50;;;;;;5014089;28;20057;-84
2022/05/29 09:17:37;;;;;;;5.72;2.35;;;19.50;61.50;;;;;;5015329;28;20072;-84
2022/05/29 09:20:03;;;;;;;5.90;1.85;;;19.40;62.20;;;;;;5013697;28;20029;-83
2022/05/29 09:22:38;;;;;;;4.65;2.05;;;19.50;62.70;;;;;;5013332;28;20439;-84
2022/05/29 09:25:06;;;;;;;5.13;2.33;;;19.50;62.10;;;;;;5013724;28;20026;-84
2022/05/29 09:27:34;;;;;;;3.80;1.80;;;19.60;62.60;;;;;;5013665;28;20045;-84
2022/05/29 09:29:59;;;;;;;28.75;4.47;;;19.40;63.00;;;;;;5013629;28;20034;-84
2022/05/29 09:32:29;;;;;;;2.70;1.77;;;19.40;63.70;;;;;;5013556;28;20034;-84
2022/05/29 09:35:10;;;;;;;3.90;2.00;;;19.50;64.20;;;;;;5013542;28;20022;-84
2022/05/29 09:38:04;;;;;;;2.70;2.20;;;19.50;65.50;;;;;;5013500;28;20088;-84
2022/05/29 09:40:46;;;;;;;6.93;2.28;;;19.60;65.50;;;;;;5013424;28;20029;-84
2022/05/29 09:43:16;;;;;;;4.25;2.55;;;19.50;65.10;;;;;;5012778;28;20121;-84
2022/05/29 09:45:42;;;;;;;6.10;2.33;;;19.60;67.20;;;;;;5013261;28;20104;-84
2022/05/29 09:51:29;;;;;;;3.67;2.20;;;19.80;66.70;;;;;;5014828;28;20041;-84
2022/05/29 09:53:58;;;;;;;3.00;2.20;;;19.90;67.80;;;;;;5013287;28;20036;-84
2022/05/29 09:56:32;;;;;;;4.27;2.63;;;19.90;66.10;;;;;;5013095;28;20025;-84
2022/05/29 09:59:12;;;;;;;6.43;2.30;;;19.90;65.90;;;;;;5013071;28;20053;-83
2022/05/29 10:01:42;;;;;;;4.95;2.40;;;19.90;66.20;;;;;;5013118;28;20050;-84
2022/05/29 10:04:30;;;;;;;4.38;2.33;;;19.90;66.70;;;;;;5014312;28;20503;-83
2022/05/29 10:06:58;;;;;;;5.38;2.42;;;20.00;66.10;;;;;;5012974;28;20034;-83
2022/05/29 10:09:27;;;;;;;4.80;2.55;;;20.00;68.20;;;;;;5013077;28;20464;-84
2022/05/29 10:12:14;;;;;;;3.05;2.30;;;20.10;68.70;;;;;;5012872;28;20071;-84
2022/05/29 10:14:44;;;;;;;5.07;2.78;;;20.20;69.70;;;;;;5012926;28;20053;-84
2022/05/29 10:17:16;;;;;;;3.28;2.80;;;20.20;69.00;;;;;;5012838;28;20030;-84
2022/05/29 10:19:46;;;;;;;4.65;2.75;;;20.20;70.70;;;;;;5012706;28;20539;-83
2022/05/29 10:22:13;;;;;;;7.10;2.33;;;20.30;70.00;;;;;;5012517;28;20050;-83
2022/05/29 10:24:40;;;;;;;5.40;3.13;;;20.40;69.80;;;;;;5012845;28;20449;-83
2022/05/29 10:27:14;;;;;;;10.05;2.55;;;20.40;71.20;;;;;;5012864;28;20064;-83
2022/05/29 10:29:41;;;;;;;3.15;2.30;;;20.50;71.40;;;;;;5012704;28;20022;-84
2022/05/29 10:32:19;;;;;;;5.28;2.30;;;20.50;71.10;;;;;;5012719;28;20033;-84
2022/05/29 10:34:45;;;;;;;1.95;1.73;;;20.60;71.00;;;;;;5013899;28;20445;-84
2022/05/29 10:37:26;;;;;;;19.05;3.70;;;20.60;72.50;;;;;;5012436;28;20056;-84
2022/05/29 10:39:51;;;;;;;3.08;2.30;;;20.70;71.30;;;;;;5013813;28;20484;-84
2022/05/29 10:42:44;;;;;;;2.22;2.03;;;20.70;71.50;;;;;;5012427;28;20037;-83
2022/05/29 10:45:18;;;;;;;3.70;1.95;;;20.70;70.60;;;;;;5012214;28;20033;-82
2022/05/29 18:49:42;;;;;;;5.90;4.05;;;16.80;93.30;;;;;;5089225;27;20386;-81
2022/05/29 18:52:09;;;;;;;5.30;4.30;;;16.30;92.70;;;;;;5072806;28;20086;-82
2022/05/29 18:54:35;;;;;;;6.55;4.30;;;16.30;93.20;;;;;;5089181;28;20028;-82
2022/05/29 18:57:07;;;;;;;10.45;4.30;;;16.20;93.30;;;;;;5088476;28;20029;-82
2022/05/29 18:59:36;;;;;;;4.90;4.35;;;16.20;93.80;;;;;;5072272;28;20038;-82
2022/05/29 19:02:02;;;;;;;10.25;3.75;;;16.20;94.30;;;;;;5090116;28;20024;-84
2022/05/29 19:04:28;;;;;;;5.13;3.70;;;16.20;94.20;;;;;;5072504;28;20025;-83
2022/05/29 19:06:54;;;;;;;7.07;4.05;;;16.10;94.50;;;;;;5073022;28;20027;-83
2022/05/29 19:09:19;;;;;;;6.00;3.90;;;16.10;94.60;;;;;;5072253;28;20056;-84
2022/05/29 19:11:45;;;;;;;5.72;3.58;;;16.10;94.80;;;;;;5072268;28;20035;-83
2022/05/29 19:14:11;;;;;;;3.83;3.40;;;16.00;95.10;;;;;;5072551;28;20462;-83
2022/05/29 19:16:37;;;;;;;3.97;3.58;;;16.00;95.20;;;;;;5072004;28;20020;-83
2022/05/29 19:19:03;;;;;;;4.18;3.15;;;16.00;95.20;;;;;;5072158;28;20425;-83
2022/05/29 19:21:29;;;;;;;4.03;3.33;;;16.00;95.80;;;;;;5069865;28;20040;-82
2022/05/29 19:23:56;;;;;;;3.40;3.10;;;15.90;95.90;;;;;;5089883;28;20035;-83
2022/05/29 19:26:25;;;;;;;3.72;3.35;;;15.90;95.80;;;;;;5071911;28;20481;-83
2022/05/29 19:28:52;;;;;;;3.83;3.45;;;15.90;95.80;;;;;;5072097;28;20024;-83
2022/05/29 19:31:40;;;;;;;3.85;3.47;;;15.80;95.80;;;;;;5071483;28;20020;-82
2022/05/29 19:34:10;;;;;;;4.00;3.53;;;15.90;96.20;;;;;;5072043;28;20027;-83
2022/05/29 19:36:38;;;;;;;4.22;3.58;;;15.80;95.80;;;;;;5071881;28;20035;-81
2022/05/29 19:39:05;;;;;;;4.75;3.80;;;15.80;96.10;;;;;;5072183;28;20032;-81
2022/05/29 19:41:32;;;;;;;4.05;3.65;;;15.70;96.30;;;;;;5071721;28;20475;-82
2022/05/29 19:43:59;;;;;;;4.80;3.35;;;15.70;96.10;;;;;;5071851;28;20505;-80
2022/05/29 19:46:28;;;;;;;5.18;3.97;;;15.60;96.10;;;;;;5090168;28;20532;-81
2022/05/29 19:48:55;;;;;;;3.63;3.30;;;15.60;96.40;;;;;;5071318;28;20410;-81
2022/05/29 19:51:22;;;;;;;4.38;3.63;;;15.50;96.40;;;;;;5071607;28;20028;-81
2022/05/29 19:53:48;;;;;;;3.50;3.20;;;15.50;96.40;;;;;;5071563;28;20032;-83
2022/05/29 19:56:16;;;;;;;4.22;3.55;;;15.50;96.70;;;;;;5071668;28;20016;-81
2022/05/29 19:58:43;;;;;;;4.90;3.55;;;15.50;96.70;;;;;;5068589;28;20450;-81
2022/05/29 20:01:12;;;;;;;4.30;3.90;;;15.50;96.70;;;;;;5054481;28;20032;-81
2022/05/29 20:03:40;;;;;;;5.75;4.03;;;15.50;96.90;;;;;;5057982;28;20020;-81
2022/05/29 20:06:11;;;;;;;7.75;4.18;;;15.50;96.80;;;;;;5058308;28;20028;-81
2022/05/29 20:08:40;;;;;;;4.25;3.85;;;15.50;96.90;;;;;;5058149;28;20060;-82
2022/05/29 20:11:08;;;;;;;4.90;4.03;;;15.60;96.80;;;;;;5058037;28;20051;-81
2022/05/29 20:13:34;;;;;;;4.63;4.22;;;15.60;96.80;;;;;;5058069;28;20020;-81
2022/05/29 20:16:09;;;;;;;5.53;4.18;;;15.60;96.80;;;;;;5076060;28;20020;-82
2022/05/29 20:18:35;;;;;;;4.47;4.07;;;15.60;96.80;;;;;;5057982;28;20028;-81
2022/05/29 20:21:01;;;;;;;5.15;4.30;;;15.60;96.80;;;;;;5057956;28;20466;-81
2022/05/29 20:23:27;;;;;;;7.70;4.38;;;15.60;96.90;;;;;;5057874;28;20063;-81
2022/05/29 20:25:53;;;;;;;4.85;4.38;;;15.60;97.10;;;;;;5057955;28;20036;-81
2022/05/29 20:28:20;;;;;;;5.20;4.70;;;15.60;97.00;;;;;;5057711;28;20032;-82
2022/05/29 20:30:54;;;;;;;6.95;5.75;;;15.50;97.10;;;;;;5057949;28;20028;-82
2022/05/29 20:33:20;;;;;;;8.10;5.25;;;15.50;97.30;;;;;;5057754;28;20021;-81
2022/05/29 20:35:47;;;;;;;5.70;5.18;;;15.50;97.40;;;;;;5057720;28;20031;-81
2022/05/29 20:38:14;;;;;;;6.70;5.22;;;15.50;97.30;;;;;;5057642;28;20036;-81
2022/05/29 20:40:40;;;;;;;5.28;4.78;;;15.40;97.70;;;;;;5057963;28;20466;-81
2022/05/29 20:43:06;;;;;;;5.30;4.75;;;15.30;97.80;;;;;;5057582;28;20024;-81
2022/05/29 20:45:36;;;;;;;6.53;4.72;;;15.20;98.40;;;;;;5057559;28;20025;-81
2022/05/29 20:48:01;;;;;;;5.32;4.60;;;15.20;99.90;;;;;;5057094;28;20048;-82
2022/05/29 20:50:27;;;;;;;4.60;4.20;;;15.20;99.90;;;;;;5057299;28;20433;-81
2022/05/29 20:52:54;;;;;;;4.55;4.10;;;15.10;99.50;;;;;;5056831;28;20429;-81
2022/05/29 20:55:20;;;;;;;4.55;4.15;;;15.10;99.90;;;;;;5057357;28;20056;-81
2022/05/29 20:57:46;;;;;;;4.82;4.43;;;15.00;99.90;;;;;;5057226;28;20513;-80
2022/05/29 21:00:12;;;;;;;4.97;4.50;;;15.00;99.90;;;;;;5057035;28;20501;-81
2022/05/29 21:02:38;;;;;;;5.00;4.50;;;14.90;99.90;;;;;;5056998;28;20056;-81
2022/05/29 21:05:05;;;;;;;6.25;5.05;;;14.90;99.90;;;;;;5056611;28;20052;-81
2022/05/29 21:07:30;;;;;;;5.10;4.57;;;14.80;99.90;;;;;;5055026;28;20020;-81
2022/05/29 21:09:56;;;;;;;5.57;4.60;;;14.80;99.90;;;;;;5055599;28;20537;-81
2022/05/29 21:12:22;;;;;;;4.60;4.20;;;14.70;99.90;;;;;;5055320;28;20025;-80
2022/05/29 21:14:48;;;;;;;4.63;3.97;;;14.70;99.90;;;;;;5056012;28;20029;-81
2022/05/29 21:17:14;;;;;;;4.57;4.18;;;14.70;99.90;;;;;;5056253;28;20028;-81
2022/05/29 21:19:40;;;;;;;4.53;4.13;;;14.70;99.90;;;;;;5055401;28;20047;-81
2022/05/29 21:22:08;;;;;;;4.80;4.30;;;14.70;99.90;;;;;;5055917;28;20031;-80
2022/05/29 21:24:36;;;;;;;7.18;4.05;;;14.60;99.90;;;;;;5055711;28;20024;-81
2022/05/29 21:27:02;;;;;;;5.95;4.13;;;14.60;99.90;;;;;;5055394;28;20032;-81
2022/05/29 21:29:28;;;;;;;4.70;4.20;;;14.50;99.90;;;;;;5055347;28;20025;-81
2022/05/29 21:31:54;;;;;;;4.38;3.97;;;14.50;99.90;;;;;;5055381;28;20497;-81